createdAt,value
2022-11-15T00:02:05.844Z,37.75
2022-11-15T00:05:26.917Z,39.65
2022-11-15T00:08:47.680Z,46.28
2022-11-15T00:12:08.869Z,43.33
2022-11-15T00:15:29.563Z,46.22
2022-11-15T00:18:55.146Z,39.22
2022-11-15T00:22:15.770Z,44.05
2022-11-15T00:25:37.275Z,43.55
2022-11-15T00:28:58.524Z,36.75
2022-11-15T00:32:19.695Z,41.33
2022-11-15T00:35:41.994Z,44.33
2022-11-15T00:39:06.833Z,39.20
2022-11-15T00:42:28.946Z,39.97
2022-11-15T00:45:50.774Z,44.97
2022-11-15T00:49:11.394Z,41.13
2022-11-15T00:52:32.533Z,35.22
2022-11-15T00:55:53.718Z,45.25
2022-11-15T00:59:16.595Z,42.08
2022-11-15T01:02:37.534Z,39.85
2022-11-15T01:06:01.331Z,44.50
2022-11-15T01:09:23.090Z,32.28
2022-11-15T01:12:43.743Z,31.52
2022-11-15T01:16:13.853Z,41.67
2022-11-15T01:19:34.517Z,37.90
2022-11-15T01:22:55.654Z,38.88
2022-11-15T01:26:17.208Z,38.70
2022-11-15T01:29:37.645Z,48.40
2022-11-15T01:32:58.930Z,45.70
2022-11-15T01:36:23.276Z,46.17
2022-11-15T01:39:43.739Z,35.97
2022-11-15T01:43:31.483Z,33.75
2022-11-15T01:46:52.814Z,37.00
2022-11-15T01:50:22.163Z,38.75
2022-11-15T01:53:47.462Z,39.13
2022-11-15T01:57:11.805Z,35.95
2022-11-15T02:00:33.107Z,34.15
2022-11-15T02:04:07.050Z,32.33
2022-11-15T02:07:27.895Z,40.38
2022-11-15T02:10:48.342Z,37.58
2022-11-15T02:14:11.449Z,28.98
2022-11-15T02:17:50.886Z,29.27
2022-11-15T02:21:30.965Z,39.80
2022-11-15T02:25:33.690Z,32.75
2022-11-15T02:29:11.927Z,34.30
2022-11-15T02:32:33.473Z,44.78
2022-11-15T02:36:01.201Z,33.38
2022-11-15T02:39:46.211Z,33.45
2022-11-15T02:43:30.442Z,33.47
2022-11-15T02:47:13.843Z,41.45
2022-11-15T02:50:35.507Z,38.40
2022-11-15T02:53:56.339Z,36.88
2022-11-15T02:57:20.064Z,35.80
2022-11-15T03:00:55.423Z,35.63
2022-11-15T03:04:45.175Z,38.95
2022-11-15T03:08:44.106Z,31.17
2022-11-15T03:12:22.628Z,35.25
2022-11-15T03:15:56.407Z,37.10
2022-11-15T03:19:37.547Z,36.20
2022-11-15T03:23:12.175Z,31.50
2022-11-15T03:26:34.828Z,35.63
2022-11-15T03:30:03.474Z,28.75
2022-11-15T03:33:24.836Z,32.08
2022-11-15T03:36:47.029Z,28.50
2022-11-15T03:40:09.720Z,34.10
2022-11-15T03:43:58.186Z,28.80
2022-11-15T03:47:27.946Z,25.70
2022-11-15T03:50:49.633Z,32.38
2022-11-15T03:54:10.570Z,33.47
2022-11-15T03:57:31.409Z,27.25
2022-11-15T04:00:53.479Z,28.25
2022-11-15T04:04:14.313Z,27.55
2022-11-15T04:07:34.768Z,33.28
2022-11-15T04:10:55.994Z,28.65
2022-11-15T04:14:16.958Z,36.78
2022-11-15T04:17:50.898Z,40.38
2022-11-15T04:21:30.295Z,31.48
2022-11-15T04:24:50.673Z,30.20
2022-11-15T04:28:12.603Z,36.17
2022-11-15T04:31:33.679Z,30.48
2022-11-15T04:34:54.195Z,31.48
2022-11-15T04:38:14.605Z,25.02
2022-11-15T04:41:35.384Z,24.92
2022-11-15T04:44:57.029Z,27.42
2022-11-15T04:48:17.957Z,24.98
2022-11-15T04:51:38.730Z,24.75
2022-11-15T04:55:03.588Z,21.08
2022-11-15T04:58:31.415Z,22.50
2022-11-15T05:01:51.970Z,17.17
2022-11-15T05:05:12.671Z,26.98
2022-11-15T05:08:33.880Z,21.48
2022-11-15T05:11:55.042Z,17.45
2022-11-15T05:15:15.969Z,16.98
2022-11-15T05:18:36.974Z,16.80
2022-11-15T05:21:58.836Z,18.88
2022-11-15T05:25:19.760Z,23.15
2022-11-15T05:28:40.460Z,18.88
2022-11-15T05:32:01.143Z,17.35
2022-11-15T05:35:32.650Z,13.73
2022-11-15T05:38:54.486Z,15.80
2022-11-15T05:42:19.161Z,21.70
2022-11-15T05:45:39.965Z,12.27
2022-11-15T05:49:01.342Z,13.60
2022-11-15T05:52:27.039Z,11.07
2022-11-15T05:55:48.436Z,12.23
2022-11-15T05:59:13.374Z,13.70
2022-11-15T06:02:35.308Z,11.15
2022-11-15T06:05:57.301Z,8.65
2022-11-15T06:09:18.791Z,14.90
2022-11-15T06:12:40.544Z,13.38
2022-11-15T06:16:02.659Z,17.90
2022-11-15T06:19:23.159Z,14.95
2022-11-15T06:22:44.746Z,14.05
2022-11-15T06:26:05.446Z,11.65
2022-11-15T06:29:26.984Z,18.52
2022-11-15T06:32:48.914Z,13.70
2022-11-15T06:36:17.418Z,12.75
2022-11-15T06:39:39.873Z,16.40
2022-11-15T06:43:00.854Z,15.50
2022-11-15T06:46:21.656Z,15.05
2022-11-15T06:49:42.260Z,15.40
2022-11-15T06:53:04.669Z,19.77
2022-11-15T06:56:26.251Z,19.90
2022-11-15T06:59:47.879Z,12.43
2022-11-15T07:03:09.340Z,11.32
2022-11-15T07:06:30.299Z,12.95
2022-11-15T07:09:51.895Z,11.35
2022-11-15T07:13:12.865Z,14.27
2022-11-15T07:16:33.485Z,8.57
2022-11-15T07:19:54.477Z,6.55
2022-11-15T07:23:15.195Z,7.00
2022-11-15T07:26:37.329Z,10.30
2022-11-15T07:29:59.486Z,10.63
2022-11-15T07:33:21.385Z,9.82
2022-11-15T07:36:43.095Z,11.05
2022-11-15T07:40:04.179Z,13.95
2022-11-15T07:43:24.869Z,14.48
2022-11-15T07:46:45.176Z,12.93
2022-11-15T07:50:09.474Z,8.63
2022-11-15T07:53:30.424Z,9.85
2022-11-15T07:56:52.518Z,9.23
2022-11-15T08:00:14.155Z,7.35
2022-11-15T08:03:35.448Z,8.38
2022-11-15T08:06:56.542Z,13.02
2022-11-15T08:10:20.184Z,11.52
2022-11-15T08:13:40.868Z,8.30
2022-11-15T08:17:01.511Z,8.25
2022-11-15T08:20:21.998Z,7.85
2022-11-15T08:23:42.585Z,6.15
2022-11-15T08:27:02.964Z,7.68
2022-11-15T08:30:24.456Z,8.07
2022-11-15T08:33:46.226Z,8.32
2022-11-15T08:37:07.442Z,12.70
2022-11-15T08:40:28.189Z,13.52
2022-11-15T08:43:52.387Z,6.15
2022-11-15T08:47:14.757Z,7.63
2022-11-15T08:50:35.848Z,8.20
2022-11-15T08:53:57.054Z,8.35
2022-11-15T08:57:17.812Z,10.68
2022-11-15T09:00:38.322Z,7.40
2022-11-15T09:03:59.672Z,8.25
2022-11-15T09:07:20.504Z,10.57
2022-11-15T09:10:41.396Z,5.97
2022-11-15T09:14:02.206Z,6.97
2022-11-15T09:17:24.977Z,6.07
2022-11-15T09:20:45.980Z,7.85
2022-11-15T09:24:07.071Z,5.45
2022-11-15T09:27:31.115Z,7.93
2022-11-15T09:30:51.563Z,9.27
2022-11-15T09:34:13.090Z,12.30
2022-11-15T09:37:34.024Z,6.07
2022-11-15T09:41:14.757Z,10.02
2022-11-15T09:44:55.578Z,9.85
2022-11-15T09:48:50.002Z,7.70
2022-11-15T09:52:09.907Z,7.65
2022-11-15T09:55:15.762Z,9.43
2022-11-15T09:58:35.285Z,7.53
2022-11-15T10:02:13.604Z,15.10
2022-11-15T10:05:20.596Z,9.38
2022-11-15T10:08:36.098Z,9.07
2022-11-15T10:11:39.812Z,9.07
2022-11-15T10:14:43.708Z,9.70
2022-11-15T10:18:04.852Z,9.35
2022-11-15T10:21:38.940Z,12.98
2022-11-15T10:24:44.669Z,14.48
2022-11-15T10:28:18.439Z,11.10
2022-11-15T10:31:28.662Z,43.30
2022-11-15T10:34:36.970Z,14.00
2022-11-15T10:37:39.349Z,10.82
2022-11-15T10:40:44.802Z,7.22
2022-11-15T10:44:16.304Z,9.75
2022-11-15T10:47:37.872Z,11.80
2022-11-15T10:50:52.151Z,8.88
2022-11-15T10:54:00.812Z,10.63
2022-11-15T10:57:08.631Z,12.40
2022-11-15T11:03:41.305Z,11.73
2022-11-15T11:07:00.856Z,6.20
2022-11-15T11:10:44.541Z,14.13
2022-11-15T11:13:42.584Z,11.87
2022-11-15T11:17:31.847Z,13.05
2022-11-15T11:20:35.974Z,13.43
2022-11-15T11:23:54.563Z,6.90
2022-11-15T11:27:27.385Z,10.90
2022-11-15T11:30:51.439Z,20.38
2022-11-15T11:33:59.861Z,16.67
2022-11-15T11:37:22.184Z,14.30
2022-11-15T11:40:33.996Z,8.30
2022-11-15T11:43:41.977Z,8.60
2022-11-15T11:46:44.322Z,9.20
2022-11-15T11:49:53.506Z,13.73
2022-11-15T11:53:04.180Z,13.02
2022-11-15T11:56:22.360Z,8.02
2022-11-15T11:59:32.825Z,9.40
2022-11-15T12:02:44.613Z,6.47
2022-11-15T12:05:58.885Z,7.85
2022-11-15T12:09:24.498Z,9.85
2022-11-15T12:12:27.076Z,10.82
2022-11-15T12:15:34.295Z,10.63
2022-11-15T12:18:36.866Z,9.40
2022-11-15T12:22:00.222Z,7.97
2022-11-15T12:25:25.361Z,11.25
2022-11-15T12:29:06.506Z,9.82
2022-11-15T12:32:24.602Z,10.90
2022-11-15T12:35:40.092Z,10.15
2022-11-15T12:38:54.914Z,9.15
2022-11-15T12:41:57.053Z,9.50
2022-11-15T12:45:00.292Z,13.70
2022-11-15T12:48:17.538Z,10.73
2022-11-15T12:51:44.063Z,8.98
2022-11-15T12:54:58.025Z,11.25
2022-11-15T12:58:39.627Z,12.45
2022-11-15T13:01:41.649Z,16.17
2022-11-15T13:04:43.723Z,15.68
2022-11-15T13:07:45.852Z,16.33
2022-11-15T13:10:47.955Z,21.20
2022-11-15T13:13:50.007Z,19.00
2022-11-15T13:17:00.322Z,20.40
2022-11-15T13:20:08.903Z,22.42
2022-11-15T13:23:16.743Z,20.23
2022-11-15T13:26:24.266Z,21.63
2022-11-15T13:29:30.335Z,26.75
2022-11-15T13:32:32.439Z,21.20
2022-11-15T13:35:38.284Z,23.80
2022-11-15T13:38:41.669Z,20.25
2022-11-15T13:41:50.450Z,30.42
2022-11-15T13:45:04.783Z,26.98
2022-11-15T13:48:09.453Z,31.50
2022-11-15T13:51:41.426Z,28.58
2022-11-15T13:54:57.176Z,31.55
2022-11-15T13:58:07.281Z,34.78
2022-11-15T14:01:18.339Z,36.45
2022-11-15T14:04:24.298Z,35.78
2022-11-15T14:07:29.816Z,34.45
2022-11-15T14:10:37.725Z,39.05
2022-11-15T14:13:40.015Z,33.85
2022-11-15T14:16:47.977Z,39.40
2022-11-15T14:19:50.955Z,37.63
2022-11-15T14:23:05.691Z,35.72
2022-11-15T14:26:34.932Z,39.72
2022-11-15T14:29:37.471Z,38.58
2022-11-15T14:32:49.002Z,37.10
2022-11-15T14:35:58.392Z,44.70
2022-11-15T14:39:01.476Z,38.30
2022-11-15T14:42:03.531Z,42.85
2022-11-15T14:45:14.808Z,42.63
2022-11-15T14:48:16.877Z,42.65
2022-11-15T14:51:19.458Z,37.67
2022-11-15T14:54:21.521Z,44.55
2022-11-15T14:57:23.687Z,41.90
2022-11-15T15:00:27.847Z,35.40
2022-11-15T15:03:32.971Z,38.95
2022-11-15T15:06:35.037Z,35.50
2022-11-15T15:09:37.323Z,33.85
2022-11-15T15:12:39.918Z,42.30
2022-11-15T15:15:42.318Z,30.42
2022-11-15T15:18:44.729Z,36.58
2022-11-15T15:21:46.900Z,40.53
2022-11-15T15:24:49.303Z,31.60
2022-11-15T15:27:51.600Z,26.67
2022-11-15T15:30:53.916Z,39.03
2022-11-15T15:33:56.062Z,34.67
2022-11-15T15:37:25.167Z,33.28
2022-11-15T15:40:30.149Z,43.33
2022-11-15T15:43:32.245Z,44.08
2022-11-15T15:46:36.589Z,40.10
2022-11-15T15:49:39.976Z,38.92
2022-11-15T15:52:42.098Z,37.47
2022-11-15T15:55:45.534Z,35.97
2022-11-15T15:58:48.309Z,36.58
2022-11-15T16:01:50.363Z,38.83
2022-11-15T16:04:53.828Z,38.25
2022-11-15T16:07:59.049Z,38.55
2022-11-15T16:11:01.244Z,44.25
2022-11-15T16:14:06.223Z,44.25
2022-11-15T16:17:16.975Z,47.83
2022-11-15T16:20:36.974Z,52.42
2022-11-15T16:23:39.142Z,40.47
2022-11-15T16:26:41.306Z,48.58
2022-11-15T16:29:45.608Z,45.45
2022-11-15T16:32:50.850Z,44.78
2022-11-15T16:35:54.926Z,51.35
2022-11-15T16:38:58.175Z,49.70
2022-11-15T16:42:06.221Z,58.30
2022-11-15T16:45:12.947Z,60.60
2022-11-15T16:48:28.969Z,51.05
2022-11-15T16:51:31.025Z,54.22
2022-11-15T16:54:35.738Z,66.15
2022-11-15T16:57:38.294Z,50.28
2022-11-15T17:00:41.401Z,53.55
2022-11-15T17:03:43.505Z,64.03
2022-11-15T17:06:47.730Z,67.85
2022-11-15T17:09:50.192Z,50.25
2022-11-15T17:12:53.346Z,64.00
2022-11-15T17:16:13.916Z,69.10
2022-11-15T17:19:21.943Z,63.60
2022-11-15T17:22:24.670Z,57.03
2022-11-15T17:25:26.775Z,51.65
2022-11-15T17:28:30.044Z,62.70
2022-11-15T17:31:34.675Z,60.47
2022-11-15T17:34:38.091Z,62.15
2022-11-15T17:37:41.583Z,53.05
2022-11-15T17:40:44.097Z,64.47
2022-11-15T17:43:48.823Z,73.05
2022-11-15T17:46:51.703Z,63.47
2022-11-15T17:49:54.138Z,76.40
2022-11-15T17:52:57.571Z,68.78
2022-11-15T17:56:04.817Z,77.88
2022-11-15T17:59:15.886Z,94.97
2022-11-15T18:02:21.158Z,87.57
2022-11-15T18:05:24.879Z,80.97
2022-11-15T18:08:29.497Z,71.70
2022-11-15T18:11:39.802Z,81.93
2022-11-15T18:14:43.048Z,69.05
2022-11-15T18:17:45.782Z,80.20
2022-11-15T18:20:49.839Z,67.00
2022-11-15T18:23:57.040Z,66.57
2022-11-15T18:27:00.754Z,66.57
2022-11-15T18:30:03.287Z,56.60
2022-11-15T18:33:05.389Z,80.78
2022-11-15T18:36:10.211Z,58.78
2022-11-15T18:39:16.952Z,59.70
2022-11-15T18:42:19.812Z,69.35
2022-11-15T18:45:24.323Z,51.83
2022-11-15T18:48:40.665Z,56.60
2022-11-15T18:51:43.228Z,53.03
2022-11-15T18:54:45.240Z,51.83
2022-11-15T18:57:47.471Z,53.88
2022-11-15T19:00:49.790Z,51.42
2022-11-15T19:03:55.277Z,46.72
2022-11-15T19:06:57.326Z,53.83
2022-11-15T19:09:59.353Z,56.55
2022-11-15T19:13:02.670Z,61.97
2022-11-15T19:16:05.801Z,61.08
2022-11-15T19:19:12.897Z,55.17
2022-11-15T19:22:14.950Z,60.72
2022-11-15T19:25:19.036Z,55.25
2022-11-15T19:28:21.188Z,62.65
2022-11-15T19:31:25.089Z,65.78
2022-11-15T19:34:27.335Z,61.78
2022-11-15T19:37:29.386Z,54.75
2022-11-15T19:40:33.530Z,47.83
2022-11-15T19:43:35.951Z,46.45
2022-11-15T19:46:39.099Z,41.83
2022-11-15T19:49:41.124Z,46.20
2022-11-15T19:52:43.638Z,43.97
2022-11-15T19:55:56.472Z,40.08
2022-11-15T19:58:58.768Z,47.10
2022-11-15T20:02:02.276Z,45.65
2022-11-15T20:05:05.049Z,44.70
2022-11-15T20:08:07.351Z,51.30
2022-11-15T20:11:09.866Z,47.15
2022-11-15T20:14:13.291Z,50.17
2022-11-15T20:17:15.435Z,48.60
2022-11-15T20:20:17.791Z,41.03
2022-11-15T20:23:19.865Z,56.42
2022-11-15T20:26:22.520Z,43.78
2022-11-15T20:29:24.690Z,40.92
2022-11-15T20:32:27.878Z,42.00
2022-11-15T20:35:30.863Z,52.45
2022-11-15T20:38:33.725Z,42.38
2022-11-15T20:41:35.916Z,47.30
2022-11-15T20:44:37.996Z,47.88
2022-11-15T20:47:40.175Z,43.58
2022-11-15T20:50:43.876Z,40.28
2022-11-15T20:53:47.182Z,48.67
2022-11-15T20:56:49.903Z,43.35
2022-11-15T20:59:51.935Z,45.28
2022-11-15T21:02:54.265Z,44.13
2022-11-15T21:05:56.498Z,50.28
2022-11-15T21:09:17.599Z,41.65
2022-11-15T21:12:19.781Z,37.88
2022-11-15T21:15:22.130Z,42.58
2022-11-15T21:18:24.780Z,34.17
2022-11-15T21:21:27.001Z,38.78
2022-11-15T21:24:30.074Z,34.75
2022-11-15T21:27:32.175Z,35.30
2022-11-15T21:30:39.640Z,31.77
2022-11-15T21:33:44.238Z,32.85
2022-11-15T21:36:47.241Z,36.97
2022-11-15T21:39:49.235Z,44.33
2022-11-15T21:42:51.434Z,33.78
2022-11-15T21:45:57.795Z,36.78
2022-11-15T21:49:00.393Z,33.83
2022-11-15T21:52:02.539Z,30.60
2022-11-15T21:55:04.748Z,48.15
2022-11-15T21:58:06.793Z,44.22
2022-11-15T22:01:30.278Z,37.80
2022-11-15T22:04:32.312Z,38.33
2022-11-15T22:07:34.358Z,35.30
2022-11-15T22:10:36.435Z,31.60
2022-11-15T22:13:38.642Z,37.22
2022-11-15T22:16:41.187Z,35.97
2022-11-15T22:19:52.254Z,32.75
2022-11-15T22:22:55.121Z,37.03
2022-11-15T22:25:57.860Z,31.05
2022-11-15T22:29:00.138Z,34.42
2022-11-15T22:32:03.244Z,47.10
2022-11-15T22:35:09.074Z,35.25
2022-11-15T22:38:11.394Z,30.77
2022-11-15T22:41:13.569Z,31.25
2022-11-15T22:44:15.695Z,33.60
2022-11-15T22:47:18.579Z,33.42
2022-11-15T22:50:21.092Z,45.00
2022-11-15T22:53:23.848Z,37.20
2022-11-15T22:56:25.994Z,45.50
2022-11-15T22:59:28.146Z,37.55
2022-11-15T23:02:30.555Z,31.02
2022-11-15T23:05:32.797Z,37.22
2022-11-15T23:08:35.009Z,42.92
2022-11-15T23:11:56.429Z,42.97
2022-11-15T23:14:58.756Z,46.55
2022-11-15T23:18:00.865Z,44.72
2022-11-15T23:21:39.086Z,46.22
2022-11-15T23:24:41.242Z,43.90
2022-11-15T23:27:44.021Z,39.83
2022-11-15T23:31:04.918Z,45.58
2022-11-15T23:34:09.619Z,43.17
2022-11-15T23:37:14.140Z,34.13
2022-11-15T23:40:16.422Z,37.53
2022-11-15T23:43:18.854Z,32.40
2022-11-15T23:46:21.018Z,39.20
2022-11-15T23:49:23.379Z,46.13
2022-11-15T23:52:26.447Z,40.08
2022-11-15T23:55:28.501Z,35.25
2022-11-15T23:58:30.871Z,42.10
